createdAt,value
2022-08-28T00:00:40.737Z,23.48
2022-08-28T00:03:10.383Z,23.55
2022-08-28T00:05:42.143Z,23.49
2022-08-28T00:08:14.162Z,23.27
2022-08-28T00:10:43.868Z,23.29
2022-08-28T00:13:20.738Z,23.33
2022-08-28T00:15:54.629Z,23.28
2022-08-28T00:18:23.611Z,23.16
2022-08-28T00:20:53.258Z,23.23
2022-08-28T00:23:21.978Z,23.40
2022-08-28T00:25:49.655Z,23.29
2022-08-28T00:28:23.740Z,23.35
2022-08-28T00:30:59.055Z,23.17
2022-08-28T00:33:34.977Z,23.07
2022-08-28T00:36:03.793Z,23.06
2022-08-28T00:38:32.056Z,23.04
2022-08-28T00:41:03.903Z,23.15
2022-08-28T00:43:41.750Z,23.30
2022-08-28T00:46:16.708Z,23.05
2022-08-28T00:48:44.373Z,22.95
2022-08-28T00:51:33.043Z,22.92
2022-08-28T00:54:04.278Z,22.57
2022-08-28T00:56:35.943Z,22.65
2022-08-28T00:59:10.861Z,22.41
2022-08-28T01:01:39.278Z,22.45
2022-08-28T01:04:06.914Z,22.56
2022-08-28T01:06:36.813Z,22.44
2022-08-28T01:09:06.488Z,22.60
2022-08-28T01:11:34.779Z,22.55
2022-08-28T01:14:03.314Z,22.14
2022-08-28T01:16:34.485Z,21.97
2022-08-28T01:19:07.041Z,22.07
2022-08-28T01:21:55.065Z,21.83
2022-08-28T01:24:23.133Z,21.77
2022-08-28T01:26:50.748Z,21.80
2022-08-28T01:29:18.650Z,21.66
2022-08-28T01:31:47.321Z,21.72
2022-08-28T01:34:15.562Z,21.80
2022-08-28T01:36:43.806Z,22.00
2022-08-28T01:39:18.027Z,22.09
2022-08-28T01:41:48.992Z,21.97
2022-08-28T01:44:18.315Z,22.10
2022-08-28T01:46:46.687Z,22.05
2022-08-28T01:49:14.672Z,22.07
2022-08-28T01:51:43.396Z,22.00
2022-08-28T01:54:12.064Z,22.19
2022-08-28T01:56:41.135Z,22.12
2022-08-28T01:59:11.661Z,22.16
2022-08-28T02:01:40.177Z,22.04
2022-08-28T02:04:07.777Z,22.07
2022-08-28T02:06:35.439Z,21.96
2022-08-28T02:09:03.013Z,22.02
2022-08-28T02:11:32.823Z,21.93
2022-08-28T02:14:02.000Z,21.93
2022-08-28T02:16:30.058Z,21.85
2022-08-28T02:18:58.163Z,21.83
2022-08-28T02:21:25.783Z,21.72
2022-08-28T02:23:53.772Z,21.71
2022-08-28T02:26:21.764Z,21.73
2022-08-28T02:28:50.039Z,21.70
2022-08-28T02:31:17.751Z,21.59
2022-08-28T02:33:46.233Z,21.58
2022-08-28T02:36:16.555Z,21.69
2022-08-28T02:38:46.165Z,21.53
2022-08-28T02:41:13.982Z,21.75
2022-08-28T02:43:41.669Z,21.65
2022-08-28T02:46:09.963Z,21.71
2022-08-28T02:48:39.404Z,21.61
2022-08-28T02:51:12.948Z,21.54
2022-08-28T02:53:41.684Z,21.50
2022-08-28T02:56:10.818Z,21.24
2022-08-28T02:58:39.681Z,21.31
2022-08-28T03:01:11.395Z,21.51
2022-08-28T03:03:41.442Z,21.32
2022-08-28T03:06:12.609Z,21.26
2022-08-28T03:08:42.158Z,21.23
2022-08-28T03:11:10.496Z,21.14
2022-08-28T03:13:38.625Z,21.12
2022-08-28T03:16:06.379Z,21.08
2022-08-28T03:18:34.322Z,20.99
2022-08-28T03:21:02.499Z,20.95
2022-08-28T03:23:30.372Z,20.95
2022-08-28T03:26:12.637Z,20.89
2022-08-28T03:28:45.585Z,21.10
2022-08-28T03:31:19.798Z,21.03
2022-08-28T03:33:48.904Z,21.16
2022-08-28T03:36:21.584Z,21.66
2022-08-28T03:38:50.827Z,21.57
2022-08-28T03:41:21.633Z,21.42
2022-08-28T03:43:49.442Z,21.17
2022-08-28T03:46:22.741Z,21.24
2022-08-28T03:48:51.957Z,21.16
2022-08-28T03:51:29.564Z,21.05
2022-08-28T03:53:59.301Z,21.01
2022-08-28T03:56:29.543Z,20.95
2022-08-28T03:59:01.006Z,21.01
2022-08-28T04:01:29.001Z,21.06
2022-08-28T04:03:57.138Z,21.07
2022-08-28T04:06:24.976Z,21.15
2022-08-28T04:08:52.548Z,21.18
2022-08-28T04:11:20.123Z,21.19
2022-08-28T04:13:47.660Z,21.29
2022-08-28T04:16:19.493Z,21.43
2022-08-28T04:18:49.559Z,21.41
2022-08-28T04:21:23.585Z,21.40
2022-08-28T04:23:51.797Z,21.51
2022-08-28T04:26:23.283Z,21.61
2022-08-28T04:28:53.802Z,21.76
2022-08-28T04:31:31.880Z,21.83
2022-08-28T04:34:07.292Z,21.74
2022-08-28T04:36:36.173Z,21.73
2022-08-28T04:39:08.574Z,21.83
2022-08-28T04:41:38.657Z,21.98
2022-08-28T04:44:07.307Z,22.15
2022-08-28T04:46:35.053Z,22.24
2022-08-28T04:49:04.247Z,22.36
2022-08-28T04:51:32.786Z,22.47
2022-08-28T04:54:03.004Z,22.58
2022-08-28T04:56:31.588Z,22.60
2022-08-28T04:59:01.875Z,22.77
2022-08-28T05:01:29.494Z,22.91
2022-08-28T05:04:00.826Z,23.12
2022-08-28T05:06:30.775Z,23.17
2022-08-28T05:09:01.178Z,23.09
2022-08-28T05:11:33.724Z,23.08
2022-08-28T05:14:05.517Z,23.18
2022-08-28T05:16:45.064Z,23.38
2022-08-28T05:19:13.849Z,23.44
2022-08-28T05:21:42.700Z,23.47
2022-08-28T05:24:11.069Z,23.89
2022-08-28T05:26:38.786Z,23.76
2022-08-28T05:29:09.998Z,24.02
2022-08-28T05:31:39.233Z,23.81
2022-08-28T05:34:07.123Z,23.72
2022-08-28T05:36:38.105Z,24.08
2022-08-28T05:39:10.567Z,23.85
2022-08-28T05:41:44.067Z,24.06
2022-08-28T05:44:14.806Z,24.17
2022-08-28T05:46:47.784Z,24.08
2022-08-28T05:49:17.907Z,24.30
2022-08-28T05:51:49.722Z,24.59
2022-08-28T05:54:18.169Z,24.63
2022-08-28T05:56:46.987Z,24.46
2022-08-28T05:59:16.605Z,24.50
2022-08-28T06:01:48.693Z,24.62
2022-08-28T06:04:25.754Z,25.00
2022-08-28T06:06:53.814Z,25.28
2022-08-28T06:09:29.393Z,25.15
2022-08-28T06:12:02.858Z,25.78
2022-08-28T06:14:32.605Z,25.65
2022-08-28T06:17:01.041Z,25.35
2022-08-28T06:19:32.239Z,25.83
2022-08-28T06:22:07.355Z,25.84
2022-08-28T06:24:36.618Z,26.15
2022-08-28T06:27:04.371Z,25.93
2022-08-28T06:29:32.001Z,26.07
2022-08-28T06:32:04.550Z,26.03
2022-08-28T06:34:32.440Z,26.05
2022-08-28T06:37:00.670Z,26.37
2022-08-28T06:39:30.549Z,26.12
2022-08-28T06:42:00.035Z,26.23
2022-08-28T06:44:28.887Z,26.26
2022-08-28T06:46:57.800Z,26.29
2022-08-28T06:49:25.484Z,26.67
2022-08-28T06:51:53.043Z,26.62
2022-08-28T06:54:23.094Z,26.96
2022-08-28T06:56:54.248Z,27.18
2022-08-28T06:59:21.876Z,27.18
2022-08-28T07:01:49.861Z,27.38
2022-08-28T07:04:17.587Z,27.35
2022-08-28T07:06:47.121Z,27.26
2022-08-28T07:09:16.751Z,27.49
2022-08-28T07:11:49.027Z,27.95
2022-08-28T07:14:16.838Z,28.00
2022-08-28T07:16:44.628Z,27.89
2022-08-28T07:19:13.302Z,27.82
2022-08-28T07:21:44.829Z,27.84
2022-08-28T07:24:17.008Z,27.90
2022-08-28T07:26:46.268Z,28.01
2022-08-28T07:29:14.429Z,28.22
2022-08-28T07:31:49.613Z,28.67
2022-08-28T07:34:20.149Z,28.81
2022-08-28T07:36:51.869Z,28.95
2022-08-28T07:39:19.933Z,29.26
2022-08-28T07:41:49.130Z,29.19
2022-08-28T07:44:36.093Z,29.18
2022-08-28T07:47:06.501Z,29.06
2022-08-28T07:49:37.078Z,29.16
2022-08-28T07:52:07.139Z,29.27
2022-08-28T07:54:36.153Z,29.37
2022-08-28T07:57:06.101Z,29.67
2022-08-28T07:59:36.943Z,30.05
2022-08-28T08:02:07.053Z,29.96
2022-08-28T08:04:35.292Z,29.99
2022-08-28T08:07:04.724Z,29.95
2022-08-28T08:09:42.226Z,30.08
2022-08-28T08:12:11.688Z,30.19
2022-08-28T08:14:41.163Z,30.30
2022-08-28T08:17:10.270Z,30.81
2022-08-28T08:19:39.676Z,30.53
2022-08-28T08:22:07.444Z,30.82
2022-08-28T08:24:35.036Z,31.05
2022-08-28T08:27:03.315Z,31.32
2022-08-28T08:29:35.909Z,31.29
2022-08-28T08:32:09.250Z,31.13
2022-08-28T08:34:45.889Z,31.15
2022-08-28T08:37:14.908Z,31.48
2022-08-28T08:39:44.003Z,31.50
2022-08-28T08:42:30.379Z,31.44
2022-08-28T08:45:04.295Z,31.58
2022-08-28T08:47:53.917Z,31.94
2022-08-28T08:50:29.433Z,32.15
2022-08-28T08:53:17.894Z,32.12
2022-08-28T08:55:55.515Z,32.32
2022-08-28T08:58:30.432Z,32.42
2022-08-28T09:01:18.079Z,32.56
2022-08-28T09:04:21.615Z,33.00
2022-08-28T09:07:04.951Z,32.91
2022-08-28T09:09:52.468Z,32.77
2022-08-28T09:12:26.179Z,33.03
2022-08-28T09:15:55.080Z,33.42
2022-08-28T09:18:34.767Z,33.65
2022-08-28T09:21:02.982Z,33.79
2022-08-28T09:23:32.508Z,33.48
2022-08-28T09:26:12.542Z,33.44
2022-08-28T09:28:44.695Z,33.50
2022-08-28T09:31:34.498Z,33.50
2022-08-28T09:34:36.760Z,33.67
2022-08-28T09:37:08.758Z,33.93
2022-08-28T09:39:37.332Z,34.62
2022-08-28T09:42:43.616Z,34.22
2022-08-28T09:45:24.590Z,34.54
2022-08-28T09:47:55.834Z,34.30
2022-08-28T09:50:57.713Z,34.15
2022-08-28T09:53:29.429Z,34.62
2022-08-28T09:56:00.939Z,34.68
2022-08-28T09:58:57.301Z,35.03
2022-08-28T10:01:49.490Z,35.13
2022-08-28T10:04:20.609Z,35.15
2022-08-28T10:07:20.143Z,34.94
2022-08-28T10:10:18.723Z,34.86
2022-08-28T10:13:16.190Z,35.15
2022-08-28T10:16:02.609Z,35.00
2022-08-28T10:18:53.845Z,35.02
2022-08-28T10:22:05.021Z,35.01
2022-08-28T10:25:02.927Z,35.23
2022-08-28T10:28:19.936Z,35.62
2022-08-28T10:31:40.786Z,35.52
2022-08-28T10:34:50.757Z,35.35
2022-08-28T10:38:03.602Z,35.62
2022-08-28T11:05:54.989Z,36.17
2022-08-28T11:08:37.070Z,36.36
2022-08-28T11:11:15.069Z,37.09
2022-08-28T11:14:01.832Z,36.70
2022-08-28T11:16:30.200Z,36.74
2022-08-28T11:19:17.418Z,36.83
2022-08-28T11:22:15.575Z,36.92
2022-08-28T11:25:02.380Z,37.19
2022-08-28T11:27:36.341Z,37.51
2022-08-28T11:30:10.848Z,37.74
2022-08-28T11:33:06.903Z,37.69
2022-08-28T11:35:45.032Z,37.98
2022-08-28T11:38:33.920Z,37.91
2022-08-28T11:41:15.801Z,38.03
2022-08-28T11:43:45.877Z,38.16
2022-08-28T11:46:33.539Z,38.14
2022-08-28T11:49:13.255Z,38.31
2022-08-28T11:51:54.908Z,38.31
2022-08-28T11:54:58.577Z,38.47
2022-08-28T11:57:47.638Z,38.47
2022-08-28T12:00:32.005Z,38.26
2022-08-28T12:03:12.767Z,38.52
2022-08-28T12:05:45.572Z,38.55
2022-08-28T12:08:43.114Z,38.44
2022-08-28T12:11:12.309Z,38.37
2022-08-28T12:13:53.480Z,38.56
2022-08-28T12:16:22.513Z,38.44
2022-08-28T12:18:53.608Z,38.39
2022-08-28T12:21:28.843Z,38.01
2022-08-28T12:24:09.917Z,38.28
2022-08-28T12:26:45.245Z,38.59
2022-08-28T12:29:48.471Z,38.64
2022-08-28T12:32:55.784Z,39.20
2022-08-28T12:35:29.999Z,38.99
2022-08-28T12:38:01.796Z,39.03
2022-08-28T12:40:47.750Z,38.90
2022-08-28T12:43:35.756Z,39.06
2022-08-28T12:46:25.927Z,38.86
2022-08-28T12:49:01.815Z,38.98
2022-08-28T12:51:38.302Z,38.60
2022-08-28T12:54:10.469Z,38.85
2022-08-28T12:56:40.677Z,38.96
2022-08-28T12:59:41.243Z,39.29
2022-08-28T13:02:29.920Z,39.61
2022-08-28T13:05:08.383Z,39.61
2022-08-28T13:07:47.622Z,39.59
2022-08-28T13:10:32.687Z,39.73
2022-08-28T13:13:18.914Z,39.70
2022-08-28T13:16:09.292Z,39.64
2022-08-28T13:18:59.418Z,39.99
2022-08-28T13:21:36.188Z,40.06
2022-08-28T13:24:43.714Z,39.99
2022-08-28T13:27:18.542Z,39.80
2022-08-28T13:30:05.316Z,39.97
2022-08-28T13:32:39.145Z,40.47
2022-08-28T13:35:35.481Z,40.23
2022-08-28T13:38:08.493Z,40.38
2022-08-28T13:40:59.278Z,40.44
2022-08-28T13:43:46.118Z,40.19
2022-08-28T13:46:14.615Z,40.19
2022-08-28T13:48:42.790Z,40.10
2022-08-28T13:51:19.033Z,40.40
2022-08-28T13:54:00.709Z,40.42
2022-08-28T13:56:28.511Z,40.44
2022-08-28T13:58:58.228Z,40.61
2022-08-28T14:01:46.558Z,40.95
2022-08-28T14:04:14.263Z,41.02
2022-08-28T14:07:03.647Z,41.22
2022-08-28T14:09:31.325Z,41.48
2022-08-28T14:12:03.143Z,41.29
2022-08-28T14:14:32.207Z,41.39
2022-08-28T14:17:03.649Z,41.60
2022-08-28T14:19:31.317Z,41.33
2022-08-28T14:22:00.654Z,41.41
2022-08-28T14:24:48.683Z,41.54
2022-08-28T14:27:35.824Z,41.09
2022-08-28T14:30:09.849Z,41.34
2022-08-28T14:32:40.247Z,41.56
2022-08-28T14:35:09.251Z,41.56
2022-08-28T14:37:42.424Z,41.69
2022-08-28T14:40:12.715Z,41.73
2022-08-28T14:42:42.361Z,41.76
2022-08-28T14:45:12.753Z,41.64
2022-08-28T14:47:40.537Z,41.05
2022-08-28T14:50:10.882Z,41.23
2022-08-28T14:52:39.005Z,41.63
2022-08-28T14:55:07.010Z,41.57
2022-08-28T14:57:39.329Z,41.40
2022-08-28T15:00:08.431Z,41.55
2022-08-28T15:02:43.784Z,41.74
2022-08-28T15:05:12.952Z,41.61
2022-08-28T15:07:40.457Z,41.75
2022-08-28T15:10:12.837Z,41.78
2022-08-28T15:12:40.384Z,41.69
2022-08-28T15:15:10.687Z,41.67
2022-08-28T15:17:38.209Z,41.72
2022-08-28T15:20:06.762Z,41.50
2022-08-28T15:22:34.328Z,41.27
2022-08-28T15:25:01.816Z,41.37
2022-08-28T15:27:29.589Z,40.91
2022-08-28T15:29:57.410Z,40.35
2022-08-28T15:32:26.398Z,39.94
2022-08-28T15:34:54.010Z,39.22
2022-08-28T15:37:21.656Z,38.93
2022-08-28T15:40:28.631Z,38.44
2022-08-28T15:42:58.663Z,37.79
2022-08-28T15:45:27.635Z,37.35
2022-08-28T15:47:55.436Z,36.91
2022-08-28T15:50:23.423Z,36.76
2022-08-28T15:52:50.947Z,36.64
2022-08-28T15:55:21.015Z,36.41
2022-08-28T15:57:48.651Z,36.09
2022-08-28T16:00:16.877Z,35.95
2022-08-28T16:02:44.789Z,35.84
2022-08-28T16:05:12.561Z,35.70
2022-08-28T16:07:40.228Z,35.71
2022-08-28T16:10:10.033Z,35.44
2022-08-28T16:12:41.020Z,35.33
2022-08-28T16:15:10.075Z,35.40
2022-08-28T16:17:38.631Z,35.28
2022-08-28T16:20:13.081Z,34.94
2022-08-28T16:22:41.397Z,34.67
2022-08-28T16:25:09.885Z,34.62
2022-08-28T16:27:37.473Z,34.65
2022-08-28T16:30:08.419Z,34.53
2022-08-28T16:32:46.645Z,34.30
2022-08-28T16:35:15.519Z,34.11
2022-08-28T16:37:43.713Z,34.07
2022-08-28T16:40:12.270Z,33.95
2022-08-28T16:42:42.567Z,33.72
2022-08-28T16:45:19.851Z,33.50
2022-08-28T16:47:47.872Z,33.28
2022-08-28T16:50:16.251Z,33.05
2022-08-28T16:52:43.811Z,33.10
2022-08-28T16:55:14.221Z,32.93
2022-08-28T16:57:42.625Z,32.74
2022-08-28T17:00:13.515Z,32.65
2022-08-28T17:02:42.648Z,32.54
2022-08-28T17:05:14.988Z,32.41
2022-08-28T17:07:47.845Z,32.26
2022-08-28T17:10:19.738Z,32.15
2022-08-28T17:12:47.434Z,32.05
2022-08-28T17:15:15.595Z,31.94
2022-08-28T17:17:43.921Z,31.83
2022-08-28T17:20:33.752Z,31.85
2022-08-28T17:23:02.034Z,31.85
2022-08-28T17:25:29.891Z,31.68
2022-08-28T17:27:57.881Z,31.67
2022-08-28T17:30:25.699Z,31.59
2022-08-28T17:32:53.576Z,31.42
2022-08-28T17:35:22.125Z,31.33
2022-08-28T17:37:53.718Z,31.22
2022-08-28T17:40:26.417Z,31.29
2022-08-28T17:42:54.196Z,31.20
2022-08-28T17:45:21.894Z,31.11
2022-08-28T17:47:49.412Z,31.04
2022-08-28T17:50:16.998Z,31.01
2022-08-28T17:52:44.496Z,30.92
2022-08-28T17:55:12.090Z,30.88
2022-08-28T17:57:39.619Z,30.82
2022-08-28T18:00:10.508Z,30.75
2022-08-28T18:02:42.545Z,30.77
2022-08-28T18:05:13.388Z,30.73
2022-08-28T18:07:42.003Z,30.64
2022-08-28T18:10:12.805Z,30.35
2022-08-28T18:12:43.238Z,30.22
2022-08-28T18:15:13.834Z,30.23
2022-08-28T18:17:48.226Z,30.18
2022-08-28T18:20:17.713Z,30.09
2022-08-28T18:22:46.242Z,29.95
2022-08-28T18:25:34.496Z,30.04
2022-08-28T18:28:05.114Z,29.95
2022-08-28T18:30:36.004Z,29.75
2022-08-28T18:33:05.660Z,29.76
2022-08-28T18:35:34.042Z,29.68
2022-08-28T18:38:03.702Z,29.70
2022-08-28T18:40:34.655Z,29.56
2022-08-28T18:43:04.636Z,29.54
2022-08-28T18:45:35.820Z,29.56
2022-08-28T18:48:04.684Z,29.87
2022-08-28T18:50:32.976Z,29.48
2022-08-28T18:53:02.280Z,29.57
2022-08-28T18:55:32.341Z,29.11
2022-08-28T18:58:02.970Z,29.00
2022-08-28T19:00:34.832Z,28.98
2022-08-28T19:03:03.485Z,28.40
2022-08-28T19:05:33.512Z,28.28
2022-08-28T19:08:01.300Z,28.29
2022-08-28T19:10:33.868Z,28.23
2022-08-28T19:13:02.871Z,28.28
2022-08-28T19:15:32.234Z,28.33
2022-08-28T19:18:02.805Z,28.14
2022-08-28T19:20:31.895Z,28.04
2022-08-28T19:23:00.535Z,28.01
2022-08-28T19:25:30.795Z,27.96
2022-08-28T19:28:04.206Z,27.95
2022-08-28T19:30:35.053Z,28.07
2022-08-28T19:33:08.455Z,28.01
2022-08-28T19:35:36.117Z,27.96
2022-08-28T19:38:03.768Z,27.97
2022-08-28T19:40:32.808Z,28.38
2022-08-28T19:43:00.949Z,27.85
2022-08-28T19:45:29.742Z,27.97
2022-08-28T19:47:57.723Z,27.61
2022-08-28T19:50:28.246Z,27.89
2022-08-28T19:52:56.263Z,27.72
2022-08-28T19:55:28.669Z,27.59
2022-08-28T19:57:56.980Z,27.54
2022-08-28T20:00:29.581Z,27.45
2022-08-28T20:02:57.794Z,27.50
2022-08-28T20:05:25.978Z,27.39
2022-08-28T20:07:54.685Z,27.39
2022-08-28T20:10:22.357Z,27.34
2022-08-28T20:12:51.513Z,27.39
2022-08-28T20:15:22.206Z,27.45
2022-08-28T20:17:50.385Z,27.52
2022-08-28T20:20:20.985Z,27.54
2022-08-28T20:22:49.026Z,27.53
2022-08-28T20:25:22.584Z,27.43
2022-08-28T20:27:50.666Z,27.46
2022-08-28T20:30:20.044Z,27.43
2022-08-28T20:32:48.209Z,27.45
2022-08-28T20:35:17.024Z,27.42
2022-08-28T20:37:49.766Z,27.33
2022-08-28T20:40:21.771Z,27.26
2022-08-28T20:42:49.837Z,27.12
2022-08-28T20:45:19.998Z,27.01
2022-08-28T20:47:51.581Z,27.14
2022-08-28T20:50:19.439Z,27.03
2022-08-28T20:52:47.096Z,27.10
2022-08-28T20:55:20.425Z,27.17
2022-08-28T20:57:48.117Z,27.14
2022-08-28T21:00:18.476Z,27.22
2022-08-28T21:02:46.338Z,27.09
2022-08-28T21:05:15.258Z,27.00
2022-08-28T21:07:43.865Z,27.20
2022-08-28T21:10:13.278Z,27.12
2022-08-28T21:12:41.070Z,26.94
2022-08-28T21:15:12.526Z,26.71
2022-08-28T21:17:41.682Z,26.79
2022-08-28T21:20:16.355Z,26.73
2022-08-28T21:22:44.782Z,26.71
2022-08-28T21:25:13.766Z,26.47
2022-08-28T21:27:41.691Z,26.28
2022-08-28T21:30:12.536Z,26.14
2022-08-28T21:32:40.386Z,26.10
2022-08-28T21:35:11.141Z,26.33
2022-08-28T21:37:41.206Z,26.40
2022-08-28T21:40:12.638Z,26.25
2022-08-28T21:42:40.746Z,26.27
2022-08-28T21:45:12.019Z,26.25
2022-08-28T21:47:41.669Z,26.22
2022-08-28T21:50:11.001Z,26.15
2022-08-28T21:52:38.904Z,26.24
2022-08-28T21:55:12.423Z,26.18
2022-08-28T21:57:40.256Z,26.01
2022-08-28T22:00:21.425Z,25.90
2022-08-28T22:02:49.560Z,25.93
2022-08-28T22:05:18.369Z,25.88
2022-08-28T22:07:46.275Z,25.99
2022-08-28T22:10:15.021Z,25.96
2022-08-28T22:12:42.633Z,25.81
2022-08-28T22:15:10.606Z,25.82
2022-08-28T22:17:38.201Z,25.76
2022-08-28T22:20:06.461Z,25.85
2022-08-28T22:22:52.523Z,25.88
2022-08-28T22:25:20.131Z,25.83
2022-08-28T22:27:47.680Z,25.68
2022-08-28T22:30:15.374Z,25.56
2022-08-28T22:32:45.282Z,25.34
2022-08-28T22:35:12.813Z,25.50
2022-08-28T22:37:40.408Z,25.26
2022-08-28T22:40:09.422Z,25.26
2022-08-28T22:42:42.431Z,25.23
2022-08-28T22:45:10.821Z,25.13
2022-08-28T22:47:38.584Z,25.05
2022-08-28T22:50:07.496Z,25.07
2022-08-28T22:52:35.184Z,24.92
2022-08-28T22:55:03.052Z,24.98
2022-08-28T22:57:34.291Z,24.82
2022-08-28T23:00:03.903Z,24.75
2022-08-28T23:02:31.581Z,24.82
2022-08-28T23:04:59.139Z,24.77
2022-08-28T23:07:26.834Z,24.93
2022-08-28T23:09:54.411Z,24.59
2022-08-28T23:12:22.116Z,24.41
2022-08-28T23:14:49.757Z,24.28
2022-08-28T23:17:18.780Z,24.33
2022-08-28T23:19:48.335Z,24.39
2022-08-28T23:22:17.344Z,24.30
2022-08-28T23:24:46.522Z,24.40
2022-08-28T23:27:35.212Z,24.21
2022-08-28T23:30:03.019Z,24.20
2022-08-28T23:32:30.510Z,24.21
2022-08-28T23:34:58.164Z,24.19
2022-08-28T23:37:25.886Z,24.19
2022-08-28T23:39:53.677Z,24.24
2022-08-28T23:42:22.164Z,24.30
2022-08-28T23:44:49.730Z,24.30
2022-08-28T23:47:17.230Z,24.30
2022-08-28T23:49:45.822Z,24.32
2022-08-28T23:52:13.397Z,24.38
2022-08-28T23:54:41.226Z,24.34
2022-08-28T23:57:08.879Z,24.37
2022-08-28T23:59:38.761Z,24.32
